Time;durP1;ratioP1;P1;durP2;ratioP2;P2;SDS_P1;SDS_P2;PMS_P1;PMS_P2;Temp;Humidity;BMP_temperature;BMP_pressure;BME280_temperature;BME280_humidity;BME280_pressure;Samples;Min_cycle;Max_cycle;Signal;HPM_P1;HPM_P2
2023/04/21 00:01:59;;;;;;;29.67;19.45;;;5.20;99.90;;;5.22;100.00;100931.44;5059073;28;20094;-76
2023/04/21 00:04:25;;;;;;;31.30;19.85;;;5.20;99.90;;;5.26;100.00;100937.38;5060112;28;20040;-75
2023/04/21 00:06:52;;;;;;;33.05;20.83;;;5.20;99.90;;;5.33;100.00;100932.94;5064773;28;20388;-76
2023/04/21 00:09:17;;;;;;;36.22;20.73;;;5.20;99.90;;;5.37;100.00;100922.63;5067137;28;20036;-75
2023/04/21 00:11:43;;;;;;;30.92;20.02;;;5.20;99.90;;;5.51;100.00;100935.38;5066634;28;20071;-75
2023/04/21 00:14:09;;;;;;;34.00;20.95;;;5.40;99.90;;;5.51;100.00;100923.75;5071871;28;20032;-75
2023/04/21 00:16:35;;;;;;;33.15;21.92;;;5.40;99.90;;;5.60;100.00;100918.09;5065146;28;20195;-75
2023/04/21 00:19:05;;;;;;;37.30;21.38;;;5.50;99.90;;;5.55;100.00;100898.81;5066247;28;20032;-75
2023/04/21 00:21:32;;;;;;;36.55;21.45;;;5.50;99.90;;;5.72;100.00;100915.84;5059561;28;20075;-75
2023/04/21 00:23:58;;;;;;;34.70;21.27;;;5.60;99.90;;;5.74;100.00;100915.66;5054157;28;20050;-75
2023/04/21 00:26:24;;;;;;;38.83;22.33;;;5.60;99.90;;;5.80;100.00;100895.97;5065153;28;20083;-75
2023/04/21 00:28:51;;;;;;;37.08;21.40;;;5.60;99.90;;;5.81;100.00;100903.06;5064908;28;20035;-75
2023/04/21 00:31:16;;;;;;;36.72;21.67;;;5.60;99.90;;;5.74;100.00;100897.56;5065947;28;20468;-75
2023/04/21 00:33:42;;;;;;;37.83;21.92;;;5.70;99.90;;;5.82;100.00;100907.47;5070677;28;20400;-75
2023/04/21 00:36:08;;;;;;;31.85;21.77;;;5.70;99.90;;;5.96;100.00;100894.19;5051967;28;20036;-75
2023/04/21 00:38:34;;;;;;;36.90;22.08;;;5.70;99.90;;;6.04;100.00;100888.75;5063937;28;20043;-75
2023/04/21 00:40:59;;;;;;;39.28;22.52;;;5.80;99.90;;;6.12;100.00;100888.69;5071644;28;20040;-75
2023/04/21 00:43:25;;;;;;;33.08;21.30;;;5.90;99.90;;;6.18;100.00;100885.25;5069995;28;20077;-75
2023/04/21 00:45:53;;;;;;;31.88;20.90;;;5.90;99.90;;;6.17;100.00;100871.88;5055450;28;20075;-75
2023/04/21 00:48:19;;;;;;;33.92;21.77;;;6.00;99.90;;;6.22;100.00;100874.06;5068909;28;20388;-75
2023/04/21 00:50:45;;;;;;;36.70;21.38;;;6.00;99.90;;;6.31;100.00;100871.09;5069860;28;20078;-75
2023/04/21 00:53:14;;;;;;;36.10;20.45;;;6.10;99.90;;;6.34;100.00;100872.56;5060498;28;20036;-75
2023/04/21 00:55:40;;;;;;;31.33;20.65;;;6.10;99.90;;;6.27;100.00;100861.66;5069608;28;20041;-75
2023/04/21 00:58:07;;;;;;;35.83;21.38;;;6.10;99.90;;;6.16;100.00;100840.38;5058484;28;20511;-75
2023/04/21 01:00:33;;;;;;;31.60;20.48;;;6.10;99.90;;;6.29;100.00;100864.16;5062492;28;20040;-75
2023/04/21 01:03:00;;;;;;;31.42;20.30;;;6.10;99.90;;;6.29;100.00;100864.16;5070456;28;20048;-75
2023/04/21 01:05:26;;;;;;;37.42;20.40;;;6.00;99.90;;;6.27;100.00;100866.22;5066326;28;20032;-75
2023/04/21 01:07:52;;;;;;;29.58;19.27;;;6.00;99.90;;;6.21;100.00;100861.53;5069679;28;20058;-75
2023/04/21 01:10:18;;;;;;;26.73;18.38;;;5.90;99.90;;;6.09;100.00;100863.81;5052556;28;20125;-75
2023/04/21 01:12:46;;;;;;;30.58;17.35;;;5.80;99.90;;;5.94;100.00;100866.44;5064050;28;20442;-75
2023/04/21 01:15:15;;;;;;;28.52;18.08;;;5.70;99.90;;;5.87;100.00;100861.75;5067235;28;20399;-75
2023/04/21 01:17:41;;;;;;;30.75;17.98;;;5.60;99.90;;;5.75;100.00;100858.63;5061421;28;20041;-75
2023/04/21 01:20:11;;;;;;;26.05;17.60;;;5.60;99.90;;;5.74;100.00;100864.22;5064292;28;20525;-75
2023/04/21 01:22:40;;;;;;;26.98;16.67;;;5.50;99.90;;;5.66;100.00;100861.56;5069998;28;20103;-75
2023/04/21 01:25:07;;;;;;;26.23;16.58;;;5.40;99.90;;;5.74;100.00;100859.66;5069170;28;20043;-75
2023/04/21 01:27:35;;;;;;;26.83;17.40;;;5.40;99.90;;;5.62;100.00;100847.53;5068426;28;20048;-75
2023/04/21 01:30:01;;;;;;;27.10;17.25;;;5.40;99.90;;;5.76;100.00;100856.75;5079873;28;20036;-75
2023/04/21 01:32:28;;;;;;;29.35;17.92;;;5.40;99.90;;;5.85;100.00;100871.94;5062164;28;20036;-75
2023/04/21 01:34:56;;;;;;;31.27;17.95;;;5.40;99.90;;;5.87;100.00;100869.88;5059067;28;20052;-75
2023/04/21 01:37:30;;;;;;;29.85;18.95;;;5.50;99.90;;;6.00;100.00;100868.44;5056197;28;20044;-75
2023/04/21 01:40:00;;;;;;;34.92;20.63;;;5.50;99.90;;;6.11;100.00;100864.47;5064527;28;20086;-75
2023/04/21 01:42:29;;;;;;;31.90;20.20;;;5.80;99.90;;;6.23;100.00;100867.59;5060362;28;20089;-75
2023/04/21 01:44:55;;;;;;;38.22;22.38;;;5.90;99.90;;;6.34;100.00;100864.44;5069219;28;20135;-75
2023/04/21 01:47:23;;;;;;;35.45;22.08;;;6.00;99.90;;;6.26;100.00;100851.84;5062715;28;20111;-75
2023/04/21 01:49:49;;;;;;;35.60;22.25;;;6.00;99.90;;;6.33;100.00;100857.34;5058885;28;20465;-75
2023/04/21 01:52:15;;;;;;;37.20;21.65;;;6.00;99.90;;;6.34;100.00;100859.03;5060082;28;20128;-75
2023/04/21 01:54:40;;;;;;;32.85;21.20;;;6.00;99.90;;;6.32;100.00;100840.25;5051094;28;20443;-75
2023/04/21 01:57:06;;;;;;;37.33;22.23;;;6.10;99.90;;;6.46;100.00;100846.72;5059622;28;20064;-75
2023/04/21 01:59:32;;;;;;;38.25;22.77;;;6.10;99.90;;;6.60;100.00;100846.91;5057162;28;20396;-75
2023/04/21 02:01:58;;;;;;;36.35;23.73;;;6.20;99.90;;;6.67;100.00;100850.59;5038516;28;20029;-75
2023/04/21 02:04:23;;;;;;;39.80;23.65;;;6.30;99.90;;;6.72;100.00;100856.28;5062721;28;20103;-75
2023/04/21 02:06:49;;;;;;;33.63;22.50;;;6.30;99.90;;;6.80;100.00;100852.66;5070076;28;20036;-75
2023/04/21 02:09:15;;;;;;;35.75;23.27;;;6.40;99.90;;;6.81;100.00;100861.59;5057828;28;20377;-75
2023/04/21 02:11:41;;;;;;;39.75;22.25;;;6.30;99.90;;;6.78;100.00;100857.41;5052658;28;20039;-75
2023/04/21 02:14:07;;;;;;;38.63;22.58;;;6.30;99.90;;;6.74;100.00;100847.94;5053027;28;20025;-75
2023/04/21 02:16:32;;;;;;;38.90;23.00;;;6.30;99.90;;;6.72;100.00;100855.44;5068541;28;20093;-75
2023/04/21 02:18:59;;;;;;;35.92;22.13;;;6.30;99.90;;;6.75;100.00;100853.19;5069274;28;20107;-75
2023/04/21 02:21:26;;;;;;;35.88;22.20;;;6.40;99.90;;;6.75;100.00;100845.06;5063714;28;20028;-75
2023/04/21 02:23:52;;;;;;;36.05;23.35;;;6.50;99.90;;;6.70;100.00;100841.22;5063801;28;20044;-75
2023/04/21 02:26:18;;;;;;;33.13;21.83;;;6.40;99.90;;;6.70;100.00;100847.50;5056870;28;20053;-75
2023/04/21 02:28:44;;;;;;;36.90;22.08;;;6.40;99.90;;;6.71;100.00;100838.34;5068052;28;20116;-76
2023/04/21 02:31:10;;;;;;;36.45;22.25;;;6.40;99.90;;;6.54;100.00;100842.25;5065142;28;20066;-77
2023/04/21 02:33:36;;;;;;;33.97;21.65;;;6.40;99.90;;;6.59;100.00;100829.81;5064226;28;20040;-76
2023/04/21 02:36:02;;;;;;;38.28;22.33;;;6.40;99.90;;;6.62;100.00;100826.72;5060696;28;20041;-75
2023/04/21 02:38:29;;;;;;;34.25;21.90;;;6.50;99.90;;;6.68;100.00;100827.88;5054955;28;20049;-75
2023/04/21 02:40:56;;;;;;;41.80;22.58;;;6.40;99.90;;;6.53;100.00;100817.00;5070883;28;20040;-75
2023/04/21 02:43:22;;;;;;;32.80;22.25;;;6.40;99.90;;;6.56;100.00;100819.34;5073537;28;20041;-75
2023/04/21 02:45:48;;;;;;;42.22;23.55;;;6.50;99.90;;;6.63;100.00;100824.88;5065804;28;20040;-75
2023/04/21 02:48:14;;;;;;;34.55;22.40;;;6.50;99.90;;;6.60;100.00;100825.22;5073145;28;20074;-77
2023/04/21 02:50:41;;;;;;;36.92;22.55;;;6.50;99.90;;;6.44;100.00;100816.25;5054171;28;20407;-76
2023/04/21 02:53:07;;;;;;;36.15;22.25;;;6.60;99.90;;;6.45;100.00;100817.06;5070955;28;20037;-75
2023/04/21 02:55:33;;;;;;;34.38;21.83;;;6.60;99.90;;;6.54;100.00;100812.41;5068687;28;20040;-75
2023/04/21 02:57:58;;;;;;;34.17;21.25;;;6.50;99.90;;;6.51;100.00;100815.50;5067447;28;20028;-75
2023/04/21 03:00:24;;;;;;;32.72;20.80;;;6.40;99.90;;;6.44;100.00;100821.69;5059750;28;20033;-75
2023/04/21 03:02:52;;;;;;;31.40;20.40;;;6.30;99.90;;;6.41;100.00;100823.91;5064338;28;20063;-75
2023/04/21 03:05:17;;;;;;;33.78;19.63;;;6.20;99.90;;;6.36;100.00;100829.03;5062768;28;20503;-75
2023/04/21 03:07:46;;;;;;;32.22;19.98;;;6.20;99.90;;;6.23;100.00;100816.13;5072321;28;20048;-75
2023/04/21 03:10:12;;;;;;;36.17;19.88;;;6.10;99.90;;;6.10;100.00;100809.47;5071520;28;20045;-75
2023/04/21 03:12:37;;;;;;;31.63;19.23;;;6.00;99.90;;;6.18;100.00;100825.66;5072314;28;20063;-75
2023/04/21 03:15:04;;;;;;;29.23;18.67;;;6.00;99.90;;;6.22;100.00;100836.13;5072512;28;20094;-75
2023/04/21 03:17:30;;;;;;;33.53;19.55;;;6.00;99.90;;;6.18;100.00;100838.34;5055659;28;20060;-75
2023/04/21 03:19:55;;;;;;;30.73;18.38;;;5.90;99.90;;;6.17;100.00;100845.66;5061539;28;20484;-75
2023/04/21 03:22:21;;;;;;;31.15;18.80;;;5.90;99.90;;;6.13;100.00;100844.31;5060764;28;20078;-76
2023/04/21 03:24:47;;;;;;;32.65;19.80;;;5.90;99.90;;;6.13;100.00;100838.91;5053632;28;20439;-75
2023/04/21 03:27:12;;;;;;;32.90;20.52;;;6.00;99.90;;;5.99;100.00;100807.16;5062684;28;20493;-75
2023/04/21 03:29:38;;;;;;;34.30;20.50;;;6.00;99.90;;;6.18;100.00;100838.34;5071058;28;20396;-75
2023/04/21 03:32:04;;;;;;;34.05;20.42;;;6.10;99.90;;;6.17;100.00;100832.09;5067824;28;20090;-75
2023/04/21 03:34:30;;;;;;;33.25;19.83;;;6.00;99.90;;;6.08;100.00;100832.34;5072269;28;20513;-76
2023/04/21 03:36:57;;;;;;;32.80;18.85;;;6.00;99.90;;;5.99;100.00;100840.53;5071694;28;20388;-76
2023/04/21 03:39:23;;;;;;;32.70;19.60;;;5.80;99.90;;;5.97;100.00;100842.56;5057693;28;20037;-76
2023/04/21 03:41:50;;;;;;;28.83;19.08;;;5.80;99.90;;;5.87;100.00;100848.22;5052811;28;20032;-75
2023/04/21 03:44:16;;;;;;;28.25;18.48;;;5.80;99.90;;;5.87;100.00;100859.06;5070166;28;20025;-75
2023/04/21 03:46:42;;;;;;;29.25;18.45;;;5.70;99.90;;;5.76;100.00;100843.22;5060317;28;20508;-76
2023/04/21 03:49:08;;;;;;;27.25;18.30;;;5.60;99.90;;;5.71;100.00;100841.06;5053596;28;20025;-76
2023/04/21 03:51:33;;;;;;;25.27;17.33;;;5.60;99.90;;;5.75;100.00;100847.81;5065340;28;20036;-75
2023/04/21 03:53:59;;;;;;;27.60;18.27;;;5.50;99.90;;;5.72;100.00;100845.47;5064723;28;20488;-76
2023/04/21 03:56:25;;;;;;;26.23;17.10;;;5.50;99.90;;;5.82;100.00;100844.38;5064492;28;20044;-76
2023/04/21 03:58:51;;;;;;;30.42;18.23;;;5.60;99.90;;;5.82;100.00;100845.19;5070630;28;20045;-76
2023/04/21 04:01:17;;;;;;;35.83;18.63;;;5.70;99.90;;;5.86;100.00;100838.41;5066107;28;20044;-76
2023/04/21 04:03:42;;;;;;;32.03;18.48;;;5.70;99.90;;;5.92;100.00;100833.28;5057309;28;20029;-76
2023/04/21 04:06:08;;;;;;;33.28;19.50;;;5.80;99.90;;;5.96;100.00;100832.72;5066876;28;20044;-76
2023/04/21 04:08:34;;;;;;;29.83;18.08;;;5.80;99.90;;;5.96;100.00;100827.31;5067480;28;20036;-76
2023/04/21 04:10:59;;;;;;;30.33;18.55;;;5.80;99.90;;;5.96;100.00;100829.19;5051863;28;20045;-76
2023/04/21 04:13:26;;;;;;;32.25;18.90;;;5.80;99.90;;;6.02;100.00;100831.19;5053221;28;20037;-76
2023/04/21 04:15:52;;;;;;;34.67;19.15;;;5.80;99.90;;;5.98;100.00;100824.44;5066574;28;20033;-76
2023/04/21 04:18:18;;;;;;;33.60;19.02;;;5.80;99.90;;;6.03;100.00;100825.63;5062208;28;20035;-76
2023/04/21 04:20:43;;;;;;;29.83;17.83;;;5.80;99.90;;;6.09;100.00;100825.91;5055866;28;20033;-75
2023/04/21 04:23:10;;;;;;;34.70;19.40;;;5.80;99.90;;;6.07;100.00;100823.38;5068016;28;20121;-75
2023/04/21 04:25:36;;;;;;;30.00;19.35;;;5.90;99.90;;;6.10;100.00;100824.88;5067278;28;20037;-75
2023/04/21 04:28:01;;;;;;;29.10;19.52;;;5.90;99.90;;;6.14;100.00;100827.03;5070469;28;20028;-75
2023/04/21 04:30:28;;;;;;;32.25;19.35;;;6.00;99.90;;;6.22;100.00;100830.69;5070598;28;20537;-76
2023/04/21 04:32:54;;;;;;;33.90;20.08;;;6.00;99.90;;;6.21;100.00;100831.72;5064763;28;20059;-75
2023/04/21 04:35:20;;;;;;;36.08;20.42;;;6.10;99.90;;;6.21;100.00;100829.00;5056989;28;20472;-75
2023/04/21 04:37:45;;;;;;;36.20;21.20;;;6.10;99.90;;;6.19;100.00;100840.88;5066412;28;20048;-76
2023/04/21 04:40:12;;;;;;;37.67;22.05;;;6.10;99.90;;;6.19;100.00;100848.16;5065853;28;20045;-75
2023/04/21 04:42:38;;;;;;;34.25;20.77;;;6.10;99.90;;;6.27;100.00;100834.56;5068509;28;20036;-79
2023/04/21 04:45:07;;;;;;;31.55;21.08;;;6.10;99.90;;;6.31;100.00;100841.28;5070511;28;20040;-75
2023/04/21 04:47:36;;;;;;;35.40;22.02;;;6.20;99.90;;;6.47;100.00;100852.97;5072312;28;20049;-75
2023/04/21 04:50:03;;;;;;;35.65;22.92;;;6.30;99.90;;;6.57;100.00;100847.28;5060848;28;20097;-74
2023/04/21 04:52:29;;;;;;;35.90;21.27;;;6.40;99.90;;;6.66;100.00;100857.03;5066974;28;20438;-74
2023/04/21 04:54:55;;;;;;;35.88;21.83;;;6.50;99.90;;;6.79;100.00;100855.53;5064110;28;20036;-75
2023/04/21 04:57:21;;;;;;;36.70;21.90;;;6.50;99.90;;;6.83;100.00;100859.53;5066277;28;20451;-75
2023/04/21 04:59:46;;;;;;;34.35;20.70;;;6.50;99.90;;;6.86;100.00;100861.88;5064627;28;20056;-74
2023/04/21 05:02:12;;;;;;;32.45;21.30;;;6.60;99.90;;;6.86;100.00;100861.88;5063863;28;20047;-74
2023/04/21 05:04:38;;;;;;;34.90;21.90;;;6.60;99.90;;;6.91;100.00;100870.31;5063029;28;20040;-74
2023/04/21 05:07:07;;;;;;;37.88;21.92;;;6.60;99.90;;;7.02;100.00;100867.13;5063898;28;20602;-75
2023/04/21 05:09:33;;;;;;;33.90;21.73;;;6.70;99.90;;;7.07;100.00;100869.28;5064257;28;20055;-75
2023/04/21 05:12:00;;;;;;;33.13;20.30;;;6.70;99.90;;;7.11;100.00;100875.16;5058562;28;20420;-74
2023/04/21 05:14:26;;;;;;;35.08;21.48;;;6.80;99.90;;;7.16;100.00;100862.72;5070432;28;20170;-75
2023/04/21 05:16:52;;;;;;;33.78;21.30;;;6.80;99.90;;;7.26;100.00;100876.00;5056896;28;20036;-75
2023/04/21 05:19:18;;;;;;;35.95;21.88;;;6.90;99.90;;;7.29;100.00;100881.03;5062052;28;20381;-75
2023/04/21 05:21:43;;;;;;;39.30;22.00;;;7.00;99.90;;;7.41;100.00;100881.41;5057760;28;20033;-75
2023/04/21 05:24:09;;;;;;;33.38;20.77;;;7.10;99.90;;;7.55;100.00;100882.41;5067342;28;20028;-75
2023/04/21 05:26:35;;;;;;;35.75;21.58;;;7.20;99.90;;;7.68;100.00;100886.28;5063596;28;20086;-76
2023/04/21 05:29:00;;;;;;;34.40;21.98;;;7.30;99.90;;;7.77;100.00;100882.44;5058312;28;20055;-75
2023/04/21 05:31:26;;;;;;;33.38;22.25;;;7.40;99.90;;;7.88;100.00;100884.63;5057372;28;20044;-75
2023/04/21 05:33:52;;;;;;;42.33;23.17;;;7.50;99.90;;;7.95;100.00;100884.72;5055030;28;20114;-78
2023/04/21 05:36:19;;;;;;;34.47;21.52;;;7.60;99.90;;;8.05;100.00;100890.66;5061307;28;20089;-76
2023/04/21 05:38:45;;;;;;;36.78;22.50;;;7.70;99.90;;;8.13;100.00;100888.84;5069849;28;20043;-75
2023/04/21 05:41:11;;;;;;;32.33;21.30;;;7.80;99.90;;;8.24;100.00;100895.66;5063792;28;20036;-75
2023/04/21 05:43:37;;;;;;;32.15;21.15;;;7.90;99.90;;;8.32;100.00;100893.59;5068877;28;20032;-78
2023/04/21 05:46:07;;;;;;;33.40;21.77;;;8.00;99.90;;;8.37;100.00;100905.81;5068863;28;20051;-76
2023/04/21 05:48:33;;;;;;;29.05;19.88;;;8.10;99.90;;;8.46;100.00;100910.88;5064691;28;20029;-77
2023/04/21 05:51:10;;;;;;;29.55;20.13;;;8.10;99.90;;;8.63;100.00;100907.91;5065767;28;20044;-77
2023/04/21 05:53:37;;;;;;;29.52;19.80;;;8.20;99.90;;;8.65;100.00;100913.16;5060713;28;20086;-78
2023/04/21 05:56:04;;;;;;;28.60;19.92;;;8.30;99.90;;;8.88;100.00;100918.34;5065223;28;20071;-77
2023/04/21 05:58:30;;;;;;;27.95;18.05;;;8.40;99.90;;;8.92;100.00;100914.19;5064329;28;20036;-76
2023/04/21 06:00:56;;;;;;;27.77;17.20;;;8.50;99.90;;;9.04;100.00;100920.75;5068053;28;21773;-76
2023/04/21 06:03:22;;;;;;;24.83;16.55;;;8.60;99.90;;;8.91;100.00;100902.47;5064821;28;20047;-74
2023/04/21 06:05:55;;;;;;;26.90;17.00;;;8.70;99.90;;;9.18;100.00;100921.69;5069252;28;20037;-76
2023/04/21 06:08:22;;;;;;;24.02;16.05;;;8.80;99.90;;;9.27;100.00;100919.59;5054387;28;20123;-76
2023/04/21 06:10:48;;;;;;;22.65;15.13;;;8.90;99.90;;;9.42;100.00;100918.66;5062668;28;20040;-75
2023/04/21 06:13:14;;;;;;;23.20;15.25;;;9.00;99.90;;;9.53;100.00;100911.78;5062319;28;20064;-75
2023/04/21 06:15:39;;;;;;;21.27;14.52;;;9.20;99.90;;;9.62;100.00;100916.84;5055965;28;20036;-75
2023/04/21 06:18:05;;;;;;;19.73;13.70;;;9.30;99.90;;;9.76;100.00;100912.28;5064312;28;20074;-75
2023/04/21 06:20:31;;;;;;;22.00;12.85;;;9.40;99.90;;;9.82;100.00;100913.34;5063102;28;20102;-75
2023/04/21 06:22:56;;;;;;;21.50;12.32;;;9.50;99.90;;;9.76;100.00;100885.03;5065867;28;20033;-75
2023/04/21 06:25:23;;;;;;;20.65;12.30;;;9.60;99.90;;;10.06;100.00;100914.66;5051943;28;20462;-75
2023/04/21 06:27:49;;;;;;;18.15;11.55;;;9.80;99.90;;;10.23;100.00;100908.81;5059257;28;20044;-76
2023/04/21 06:30:14;;;;;;;19.33;11.18;;;9.90;99.90;;;10.31;100.00;100910.47;5068185;28;20056;-75
2023/04/21 06:32:40;;;;;;;19.10;11.13;;;10.00;99.90;;;10.32;100.00;100896.66;5056227;28;20448;-74
2023/04/21 06:35:06;;;;;;;18.95;11.65;;;10.20;99.90;;;10.51;100.00;100910.53;5066379;28;20037;-74
2023/04/21 06:37:32;;;;;;;17.48;11.05;;;10.30;99.90;;;10.61;100.00;100904.66;5061605;28;20426;-74
2023/04/21 06:39:57;;;;;;;17.35;10.68;;;10.50;99.90;;;10.81;100.00;100901.91;5061894;28;20048;-75
2023/04/21 06:42:23;;;;;;;16.15;10.48;;;10.60;99.90;;;10.98;100.00;100893.25;5032712;28;20028;-74
2023/04/21 06:44:49;;;;;;;21.90;9.93;;;10.70;99.90;;;11.16;100.00;100895.34;5068265;28;20193;-73
2023/04/21 06:47:15;;;;;;;16.02;10.25;;;10.90;99.90;;;11.22;100.00;100895.28;5068356;28;20052;-74
2023/04/21 06:49:41;;;;;;;19.02;10.38;;;11.00;99.90;;;11.29;100.00;100894.44;5060972;28;20128;-75
2023/04/21 06:52:07;;;;;;;17.27;9.98;;;11.10;99.90;;;11.37;100.00;100892.28;5064852;28;20555;-75
2023/04/21 06:54:33;;;;;;;15.27;9.90;;;11.20;99.90;;;11.54;100.00;100885.50;5068548;28;20033;-75
2023/04/21 06:56:58;;;;;;;16.35;8.93;;;11.40;99.90;;;11.49;100.00;100883.44;5059894;28;20066;-75
2023/04/21 06:59:24;;;;;;;17.17;9.90;;;11.40;99.90;;;11.70;100.00;100895.94;5050768;28;20037;-78
2023/04/21 07:01:53;;;;;;;18.65;9.52;;;11.60;99.90;;;11.69;100.00;100888.78;5055121;28;20036;-78
2023/04/21 07:04:20;;;;;;;17.88;9.13;;;11.70;99.90;;;11.90;100.00;100882.13;5061899;28;20028;-77
2023/04/21 07:06:47;;;;;;;15.52;8.55;;;11.80;99.90;;;11.89;100.00;100894.13;5051686;28;20045;-78
2023/04/21 07:09:13;;;;;;;13.63;8.82;;;11.90;99.90;;;11.97;100.00;100878.56;5059036;28;20427;-78
2023/04/21 07:11:39;;;;;;;17.45;8.73;;;12.00;99.90;;;12.16;100.00;100887.69;5070277;28;20095;-78
2023/04/21 07:14:05;;;;;;;17.40;8.85;;;12.10;99.90;;;12.40;100.00;100885.19;5064208;28;20036;-81
2023/04/21 07:16:31;;;;;;;15.23;9.30;;;12.30;99.90;;;12.44;100.00;100886.44;5053504;28;20037;-76
2023/04/21 07:18:57;;;;;;;18.08;9.25;;;12.40;99.90;;;12.42;100.00;100885.81;5067604;28;20036;-76
2023/04/21 07:21:23;;;;;;;13.23;8.35;;;12.50;99.90;;;12.67;100.00;100883.06;5073459;28;20039;-77
2023/04/21 07:23:49;;;;;;;12.63;8.30;;;12.60;99.90;;;12.91;100.00;100884.09;5071732;28;20119;-76
2023/04/21 07:26:14;;;;;;;16.73;8.25;;;12.70;99.90;;;13.02;100.00;100887.13;5056619;28;20408;-75
2023/04/21 07:28:40;;;;;;;15.02;8.20;;;12.90;99.90;;;13.21;97.59;100885.22;5070028;28;20037;-76
2023/04/21 07:31:06;;;;;;;16.08;8.60;;;13.00;99.90;;;13.30;97.37;100883.03;5070305;28;20033;-78
2023/04/21 07:33:32;;;;;;;16.63;8.00;;;13.10;99.90;;;13.32;94.36;100876.25;5062400;28;20103;-76
2023/04/21 07:35:58;;;;;;;15.55;8.55;;;13.30;99.90;;;13.45;93.94;100877.19;5054831;28;20137;-76
2023/04/21 07:38:24;;;;;;;18.90;8.25;;;13.30;99.90;;;13.59;94.03;100866.88;5066036;28;20455;-76
2023/04/21 07:40:49;;;;;;;17.27;8.05;;;13.40;99.90;;;13.70;94.08;100866.09;5056139;28;20113;-76
2023/04/21 07:43:15;;;;;;;18.00;8.18;;;13.60;99.90;;;13.81;93.32;100876.25;5069092;28;20052;-76
2023/04/21 07:45:41;;;;;;;15.80;8.63;;;13.70;99.90;;;13.86;92.68;100855.53;5066819;28;20628;-79
2023/04/21 07:48:07;;;;;;;13.40;7.93;;;13.80;99.90;;;14.27;94.62;100872.19;5053609;28;20476;-78
2023/04/21 07:50:35;;;;;;;15.82;8.70;;;14.00;99.90;;;14.37;89.59;100856.00;5063026;28;20075;-77
2023/04/21 07:53:01;;;;;;;;;;;14.20;99.90;;;14.47;87.27;100845.25;5059622;28;20065;-78
2023/04/21 07:55:27;;;;;;;13.13;8.10;;;14.30;99.90;;;14.47;86.42;100853.50;5058958;28;19963;-78
2023/04/21 07:57:54;;;;;;;18.63;8.32;;;14.40;99.90;;;14.57;87.78;100855.66;5055685;28;20033;-79
2023/04/21 08:00:20;;;;;;;15.80;8.13;;;14.50;99.90;;;14.74;88.26;100866.78;5063176;28;20037;-79
2023/04/21 08:02:46;;;;;;;16.15;8.70;;;14.70;99.90;;;14.63;85.31;100838.22;5061410;28;20488;-77
2023/04/21 08:05:12;;;;;;;18.70;8.30;;;14.80;99.90;;;14.71;82.93;100852.69;5065105;28;20036;-77
2023/04/21 08:07:38;;;;;;;12.48;7.78;;;14.80;99.90;;;14.86;85.11;100863.22;5063464;28;20123;-77
2023/04/21 08:10:06;;;;;;;14.75;7.97;;;14.90;99.90;;;15.15;85.20;100858.59;5078904;28;20686;-76
2023/04/21 08:12:32;;;;;;;;;;;15.10;99.90;;;15.27;83.85;100847.59;5070747;28;20115;-77
2023/04/21 08:14:58;;;;;;;15.88;8.48;;;15.20;99.90;;;15.39;80.43;100850.28;5066120;28;20006;-78
2023/04/21 08:17:23;;;;;;;16.42;8.00;;;15.40;99.90;;;15.40;79.54;100840.97;5065138;28;20033;-79
2023/04/21 08:19:50;;;;;;;16.45;7.45;;;15.50;99.90;;;15.36;75.08;100839.78;5064167;28;20510;-76
2023/04/21 08:22:15;;;;;;;16.75;7.93;;;15.50;99.90;;;15.39;74.48;100837.41;5060622;28;20496;-77
2023/04/21 08:24:41;;;;;;;19.02;8.15;;;15.50;99.90;;;15.63;74.03;100831.78;5068178;28;20085;-75
2023/04/21 08:27:07;;;;;;;15.45;7.63;;;15.60;99.90;;;15.98;75.01;100826.38;5070268;28;20526;-77
2023/04/21 08:29:32;;;;;;;17.63;7.82;;;15.80;99.90;;;16.00;72.34;100826.97;5061696;28;20048;-76
2023/04/21 08:31:58;;;;;;;14.05;7.90;;;16.00;99.90;;;16.16;69.67;100820.63;5066406;28;20041;-76
2023/04/21 08:34:24;;;;;;;18.95;7.90;;;16.10;99.90;;;16.16;69.56;100822.56;5060643;28;20031;-75
2023/04/21 08:36:50;;;;;;;16.27;7.47;;;16.30;99.90;;;16.28;70.11;100819.72;5065517;28;20032;-74
2023/04/21 08:39:16;;;;;;;14.90;8.02;;;;;;;16.54;70.10;100824.53;5068661;28;20059;-77
2023/04/21 08:41:52;;;;;;;14.68;7.47;;;16.40;99.90;;;16.64;67.94;100806.47;5060459;28;20067;-78
2023/04/21 08:44:20;;;;;;;13.95;7.32;;;16.60;99.90;;;16.97;66.52;100811.06;5071405;28;20111;-81
2023/04/21 08:46:51;;;;;;;14.25;7.40;;;16.80;99.90;;;17.14;64.42;100804.69;5071884;28;20032;-78
2023/04/21 08:49:20;;;;;;;13.98;7.55;;;17.00;99.90;;;17.27;66.67;100811.72;5067020;28;20032;-77
2023/04/21 08:51:46;;;;;;;12.73;6.80;;;17.20;99.90;;;17.42;64.25;100818.50;5071260;28;20044;-77
2023/04/21 08:54:12;;;;;;;15.60;7.40;;;17.30;99.90;;;17.52;61.87;100813.94;5063642;28;20032;-79
2023/04/21 08:56:39;;;;;;;14.45;7.57;;;17.50;99.90;;;17.67;59.30;100799.47;5054340;28;20037;-80
2023/04/21 08:59:05;;;;;;;13.63;7.15;;;;;;;17.79;61.43;100807.56;5067810;28;20062;-79
2023/04/21 09:01:31;;;;;;;11.40;6.60;;;17.60;99.90;;;17.71;60.36;100808.06;5065026;28;20093;-79
2023/04/21 09:04:19;;;;;;;13.73;6.93;;;17.80;99.90;;;17.75;57.78;100805.59;5054032;28;20033;-77
2023/04/21 09:06:45;;;;;;;13.57;6.90;;;17.90;99.90;;;17.64;57.17;100782.63;5062616;28;20353;-76
2023/04/21 09:09:11;;;;;;;15.35;6.50;;;17.90;99.90;;;17.89;57.77;100795.81;5063730;28;20040;-78
2023/04/21 09:11:37;;;;;;;14.45;6.25;;;18.00;99.90;;;17.94;55.42;100792.25;5067357;28;20036;-77
2023/04/21 09:14:03;;;;;;;13.77;6.43;;;;;;;18.27;55.57;100795.84;5064396;28;20472;-78
2023/04/21 09:16:34;;;;;;;13.93;6.80;;;18.10;99.90;;;18.53;54.03;100794.06;5079956;28;20476;-77
2023/04/21 09:19:00;;;;;;;14.98;5.88;;;;;;;18.72;54.93;100796.41;5075354;28;20404;-77
2023/04/21 09:21:27;;;;;;;14.15;6.43;;;;;;;18.88;53.26;100794.53;5049964;28;20028;-77
2023/04/21 09:23:56;;;;;;;12.50;6.20;;;;;;;19.24;53.38;100786.44;5062124;28;20047;-76
2023/04/21 09:26:22;;;;;;;13.75;6.30;;;18.40;99.90;;;18.66;51.00;100767.09;5060381;28;20041;-77
2023/04/21 09:28:52;;;;;;;14.32;5.78;;;19.00;95.80;;;18.94;52.90;100793.47;5056650;28;20461;-76
2023/04/21 09:31:23;;;;;;;10.57;5.47;;;19.00;98.20;;;19.07;51.80;100781.09;5061005;28;20094;-77
2023/04/21 09:33:55;;;;;;;12.40;5.43;;;;;;;19.26;50.90;100781.47;5061857;28;21847;-75
2023/04/21 09:36:24;;;;;;;10.85;5.22;;;19.20;97.00;;;19.62;51.06;100788.16;5065685;28;20074;-76
2023/04/21 09:38:53;;;;;;;11.27;5.30;;;19.60;96.20;;;19.36;46.93;100761.31;5054189;28;20368;-78
2023/04/21 09:41:20;;;;;;;10.80;5.95;;;19.60;91.70;;;18.94;47.45;100765.00;5071699;28;20024;-78
2023/04/21 09:43:47;;;;;;;11.60;5.70;;;19.40;91.40;;;19.23;47.41;100761.81;5062979;28;20040;-77
2023/04/21 09:46:19;;;;;;;9.48;5.47;;;19.40;91.40;;;19.63;46.51;100760.22;5066371;28;20036;-76
2023/04/21 09:48:47;;;;;;;11.80;6.05;;;19.70;91.00;;;19.67;46.97;100753.03;5069414;28;20048;-74
2023/04/21 09:51:16;;;;;;;9.45;5.03;;;19.80;91.20;;;20.03;46.31;100763.31;5063906;28;20039;-76
2023/04/21 09:53:44;;;;;;;9.75;5.07;;;20.00;90.60;;;20.36;47.33;100760.19;5065374;28;20045;-78
2023/04/21 09:56:13;;;;;;;12.43;5.28;;;20.30;91.50;;;20.62;46.58;100762.91;5051723;28;20048;-78
2023/04/21 09:58:54;;;;;;;11.38;5.30;;;20.60;91.00;;;19.95;43.90;100738.94;5062879;28;20033;-78
2023/04/21 10:01:23;;;;;;;10.30;6.05;;;20.40;86.00;;;20.05;45.88;100750.03;5064338;28;20029;-74
2023/04/21 10:03:50;;;;;;;12.23;5.47;;;20.30;89.10;;;19.92;43.37;100740.34;5066673;28;20130;-75
2023/04/21 10:06:16;;;;;;;12.32;5.45;;;;;;;20.33;44.38;100733.06;5068948;28;20392;-73